Time;durP1;ratioP1;P1;durP2;ratioP2;P2;SDS_P1;SDS_P2;PMS_P1;PMS_P2;Temp;Humidity;BMP_temperature;BMP_pressure;BME280_temperature;BME280_humidity;BME280_pressure;Samples;Min_cycle;Max_cycle;Signal;HPM_P1;HPM_P2
2022/04/29 00:00:42;;;;;;;7.63;4.07;;;;;;;12.77;81.10;101427.94;4863481;29;20414;-85
2022/04/29 00:03:09;;;;;;;10.30;4.55;;;;;;;12.79;80.91;101438.44;4880529;29;20040;-86
2022/04/29 00:05:36;;;;;;;6.13;4.47;;;;;;;12.71;81.43;101428.56;4879636;29;20369;-88
2022/04/29 00:08:03;;;;;;;7.00;4.18;;;;;;;12.87;80.60;101431.34;4879964;29;21984;-85
2022/04/29 00:10:28;;;;;;;7.32;4.13;;;;;;;12.92;80.22;101426.41;4879327;29;20033;-86
2022/04/29 00:12:54;;;;;;;6.70;3.92;;;;;;;12.80;79.48;101432.94;4879905;29;20052;-85
2022/04/29 00:15:21;;;;;;;4.75;3.83;;;;;;;12.72;79.25;101434.72;4862910;29;20041;-87
2022/04/29 00:17:47;;;;;;;5.53;4.00;;;;;;;12.62;78.59;101428.66;4880200;29;20044;-87
2022/04/29 00:20:14;;;;;;;4.35;3.70;;;;;;;12.58;78.84;101430.78;4880279;29;20405;-87
2022/04/29 00:22:40;;;;;;;4.45;3.28;;;;;;;12.88;77.42;101434.84;4879870;29;20025;-87
2022/04/29 00:25:07;;;;;;;8.07;4.03;;;;;;;13.06;76.26;101426.84;4878702;29;20045;-89
2022/04/29 00:27:33;;;;;;;7.15;3.88;;;;;;;13.03;75.95;101433.28;4879990;29;20064;-88
2022/04/29 00:33:27;;;;;;;7.35;3.78;;;;;;;12.59;78.59;101434.28;4894375;29;20040;-88
2022/04/29 00:35:54;;;;;;;5.53;4.10;;;;;;;12.34;79.21;101427.88;4869648;29;20037;-87
2022/04/29 00:38:19;;;;;;;4.80;3.88;;;;;;;12.33;79.16;101434.16;4881102;29;20052;-88
2022/04/29 00:40:45;;;;;;;5.75;3.75;;;;;;;12.38;79.15;101422.13;4880202;29;20037;-89
2022/04/29 00:43:12;;;;;;;6.57;3.60;;;;;;;12.20;79.31;101431.06;4879996;29;20037;-88
2022/04/29 00:45:38;;;;;;;7.40;3.90;;;;;;;12.29;79.23;101427.50;4880288;29;20048;-89
2022/04/29 00:48:03;;;;;;;6.13;4.00;;;;;;;12.24;78.89;101419.97;4879862;29;20037;-88
2022/04/29 00:50:30;;;;;;;7.35;4.28;;;;;;;12.27;79.13;101424.16;4879746;29;20044;-86
2022/04/29 00:52:59;;;;;;;5.50;3.90;;;;;;;12.14;79.28;101431.66;4859555;29;20025;-84
2022/04/29 00:55:25;;;;;;;7.60;4.10;;;;;;;12.03;79.58;101429.22;4871678;29;20049;-85
2022/04/29 00:57:50;;;;;;;5.90;3.95;;;;;;;12.07;79.41;101428.75;4871586;29;20052;-86
2022/04/29 01:00:22;;;;;;;9.48;4.43;;;;;;;11.93;80.59;101425.78;4851824;29;20041;-85
2022/04/29 01:02:51;;;;;;;5.60;4.35;;;;;;;12.01;80.43;101421.41;4869068;29;20036;-88
2022/04/29 01:05:20;;;;;;;6.22;4.15;;;;;;;12.28;78.92;101421.34;4869877;29;20036;-86
2022/04/29 01:07:47;;;;;;;6.90;4.03;;;;;;;12.28;79.02;101425.84;4868678;29;20101;-86
2022/04/29 01:10:15;;;;;;;8.73;3.88;;;;;;;12.50;78.16;101421.88;4868557;29;20515;-86
2022/04/29 01:12:44;;;;;;;5.07;3.53;;;;;;;12.53;77.86;101427.72;4877080;29;20036;-85
2022/04/29 01:15:13;;;;;;;5.18;4.18;;;;;;;12.59;77.62;101427.13;4878590;29;20366;-85
2022/04/29 01:17:41;;;;;;;7.70;4.10;;;;;;;12.70;77.65;101426.03;4878468;29;20112;-84
2022/04/29 01:20:14;;;;;;;6.78;3.97;;;;;;;12.72;76.44;101419.59;4879801;29;20446;-87
2022/04/29 01:22:40;;;;;;;;;;;;;;;12.48;77.95;101421.19;4863156;29;20033;-85
2022/04/29 01:25:06;;;;;;;5.22;3.75;;;;;;;12.37;78.09;101422.25;4879381;29;20022;-86
2022/04/29 01:27:32;;;;;;;6.60;4.53;;;;;;;12.35;78.74;101418.94;4862671;29;20119;-85
2022/04/29 01:30:06;;;;;;;5.45;3.85;;;;;;;12.14;80.14;101418.38;4878067;29;20569;-84
2022/04/29 01:32:35;;;;;;;7.55;3.90;;;;;;;12.21;79.16;101414.97;4862653;29;20045;-85
2022/04/29 01:35:01;;;;;;;8.68;3.97;;;;;;;11.98;81.19;101416.38;4863114;29;20044;-86
2022/04/29 01:37:27;;;;;;;5.65;4.25;;;;;;;11.90;81.82;101410.97;4862520;29;20402;-86
2022/04/29 01:39:53;;;;;;;6.47;4.70;;;;;;;11.68;83.85;101409.53;4847253;29;20044;-86
2022/04/29 01:42:20;;;;;;;7.88;4.28;;;;;;;11.66;84.18;101405.34;4878195;29;20132;-84
2022/04/29 01:44:45;;;;;;;5.30;4.10;;;;;;;11.75;83.66;101407.16;4879282;29;20069;-84
2022/04/29 01:47:13;;;;;;;5.55;4.25;;;;;;;11.64;84.23;101402.84;4879949;29;20044;-84
2022/04/29 01:49:58;;;;;;;6.10;4.40;;;;;;;11.43;85.97;101396.94;4882012;29;20480;-87
2022/04/29 01:52:25;;;;;;;6.88;4.47;;;;;;;11.47;85.11;101406.25;4881121;29;20500;-86
2022/04/29 01:54:54;;;;;;;10.75;4.63;;;;;;;11.72;83.89;101408.28;4865866;29;20028;-85
2022/04/29 01:57:21;;;;;;;5.30;4.57;;;;;;;11.81;83.21;101406.56;4881771;29;20064;-84
2022/04/29 01:59:47;;;;;;;6.03;4.32;;;;;;;11.66;82.69;101403.53;4881485;29;20490;-86
2022/04/29 02:02:22;;;;;;;5.72;4.38;;;;;;;11.39;84.15;101395.56;4881159;29;20033;-84
2022/04/29 02:04:50;;;;;;;5.05;4.20;;;;;;;11.44;83.54;101393.28;4882222;29;20393;-85
2022/04/29 02:07:17;;;;;;;8.10;4.43;;;;;;;11.24;85.07;101397.84;4865653;29;20449;-88
2022/04/29 02:09:44;;;;;;;4.32;3.55;;;;;;;11.34;84.21;101384.53;4881352;29;20508;-84
2022/04/29 02:12:11;;;;;;;5.63;4.13;;;;;;;11.07;85.64;101385.31;4865672;29;20060;-83
2022/04/29 02:14:58;;;;;;;5.05;3.70;;;;;;;11.14;84.61;101380.25;4882442;29;20045;-84
2022/04/29 02:17:44;;;;;;;5.07;3.75;;;;;;;11.25;84.26;101382.75;4882921;29;20124;-86
2022/04/29 02:20:10;;;;;;;6.28;4.00;;;;;;;11.22;84.13;101380.38;4875553;29;20068;-84
2022/04/29 02:22:39;;;;;;;5.68;4.00;;;;;;;11.25;83.69;101382.75;4889900;29;20037;-83
2022/04/29 02:25:05;;;;;;;7.55;4.32;;;;;;;11.01;85.00;101377.94;4888758;29;20045;-85
2022/04/29 02:27:30;;;;;;;5.97;4.43;;;;;;;10.85;86.34;101389.16;4901964;29;20033;-83
2022/04/29 02:29:56;;;;;;;5.93;4.43;;;;;;;10.61;88.14;101383.47;4870553;29;20060;-84
2022/04/29 02:32:22;;;;;;;7.32;4.70;;;;;;;10.38;90.18;101374.13;4900113;29;20119;-85
2022/04/29 02:34:48;;;;;;;6.50;4.53;;;;;;;10.35;90.17;101379.72;4897176;29;20049;-84
2022/04/29 02:37:15;;;;;;;10.60;4.80;;;;;;;10.29;90.46;101377.63;4866848;29;20071;-83
2022/04/29 02:39:44;;;;;;;6.63;4.50;;;;;;;10.29;90.72;101378.47;4882206;29;20029;-85
2022/04/29 02:42:10;;;;;;;5.90;4.75;;;;;;;10.58;89.66;101373.13;4898396;29;20044;-84
2022/04/29 02:44:36;;;;;;;6.60;5.07;;;;;;;10.49;89.50;101368.69;4884440;29;20047;-85
2022/04/29 02:47:08;;;;;;;8.35;5.20;;;;;;;10.46;90.19;101362.84;4885724;29;20135;-84
2022/04/29 02:49:39;;;;;;;4.93;3.45;;;;;;;10.52;90.11;101372.88;4886067;29;20037;-84
2022/04/29 02:52:06;;;;;;;6.80;4.53;;;;;;;10.68;88.57;101367.81;4886901;29;20143;-84
2022/04/29 02:54:32;;;;;;;7.80;4.78;;;;;;;10.80;87.83;101370.16;4885982;29;20037;-85
2022/04/29 02:56:58;;;;;;;6.75;4.40;;;;;;;10.83;87.47;101361.94;4885156;29;20041;-85
2022/04/29 02:59:34;;;;;;;6.82;4.10;;;;;;;10.66;90.01;101364.50;4872624;29;20053;-86
2022/04/29 03:02:03;;;;;;;7.72;4.40;;;;;;;10.75;89.59;101371.59;4867432;29;20112;-83
2022/04/29 03:04:29;;;;;;;6.47;4.30;;;;;;;10.62;89.94;101363.94;4866801;29;20033;-85
2022/04/29 03:06:55;;;;;;;9.65;4.60;;;;;;;10.59;90.33;101361.56;4882648;29;20129;-85
2022/04/29 03:09:22;;;;;;;7.80;4.55;;;;;;;10.63;91.08;101360.31;4867214;29;20048;-86
2022/04/29 03:11:48;;;;;;;5.55;4.35;;;;;;;10.70;89.73;101366.72;4882783;29;20021;-84
2022/04/29 03:14:15;;;;;;;6.28;4.60;;;;;;;10.57;91.04;101368.81;4865437;29;20037;-85
2022/04/29 03:16:41;;;;;;;8.00;4.60;;;;;;;10.67;90.16;101366.97;4866867;29;20085;-87
2022/04/29 03:19:08;;;;;;;10.25;4.20;;;;;;;10.78;88.78;101369.47;4866999;29;20033;-85
2022/04/29 03:21:34;;;;;;;5.10;3.85;;;;;;;10.87;88.61;101373.91;4867130;29;20041;-86
2022/04/29 03:24:01;;;;;;;4.97;4.20;;;;;;;10.89;87.58;101366.69;4881415;29;20519;-86
2022/04/29 03:26:28;;;;;;;5.78;4.38;;;;;;;10.84;87.90;101373.38;4873848;29;20037;-82
2022/04/29 03:28:53;;;;;;;6.93;4.20;;;;;;;10.81;87.11;101368.34;4895232;29;20048;-83
2022/04/29 03:31:19;;;;;;;10.25;4.15;;;;;;;10.59;87.84;101368.69;4867347;29;20040;-86
2022/04/29 03:34:02;;;;;;;6.55;4.50;;;;;;;10.62;87.36;101366.59;4883751;29;20051;-87
2022/04/29 03:36:31;;;;;;;5.85;3.97;;;;;;;10.57;87.41;101371.47;4864782;29;20044;-86
2022/04/29 03:38:57;;;;;;;6.20;3.90;;;;;;;10.78;85.54;101384.56;4880107;29;20041;-86
2022/04/29 03:41:23;;;;;;;5.78;4.13;;;;;;;10.76;85.37;101373.25;4889040;29;20034;-85
2022/04/29 03:43:49;;;;;;;8.32;4.25;;;;;;;10.55;86.42;101384.03;4882193;29;20069;-86
2022/04/29 03:46:22;;;;;;;6.60;4.30;;;;;;;10.48;86.79;101377.59;4883011;29;20033;-85
2022/04/29 03:51:54;;;;;;;7.18;3.72;;;;;;;10.63;86.43;101386.81;4879921;29;20065;-87
2022/04/29 03:54:20;;;;;;;8.80;4.32;;;;;;;10.68;86.81;101392.53;4868087;29;20041;-87
2022/04/29 03:56:52;;;;;;;5.35;3.78;;;;;;;10.74;85.99;101394.59;4881157;29;20045;-87
2022/04/29 03:59:19;;;;;;;9.35;3.58;;;;;;;10.82;85.41;101394.75;4863609;29;20518;-87
2022/04/29 04:01:45;;;;;;;7.22;3.90;;;;;;;10.97;84.61;101394.31;4864209;29;20058;-86
2022/04/29 04:04:11;;;;;;;6.07;3.30;;;;;;;10.93;84.44;101387.59;4863786;29;20093;-90
2022/04/29 04:06:52;;;;;;;5.18;3.35;;;;;;;11.14;83.36;101390.88;4863531;29;20072;-88
2022/04/29 04:09:27;;;;;;;9.57;3.70;;;;;;;11.16;82.51;101399.56;4864377;29;20049;-88
2022/04/29 04:12:03;;;;;;;8.60;3.50;;;;;;;11.24;82.05;101391.69;4868851;29;20032;-87
2022/04/29 04:14:48;;;;;;;9.70;3.40;;;;;;;11.30;81.41;101397.25;4866809;29;20458;-87
2022/04/29 04:17:14;;;;;;;6.60;3.70;;;;;;;11.33;81.30;101396.94;4864016;29;20074;-87
2022/04/29 04:19:40;;;;;;;7.53;3.35;;;;;;;10.91;83.08;101401.00;4879077;29;20499;-86
2022/04/29 04:22:06;;;;;;;4.55;3.30;;;;;;;10.76;84.25;101400.63;4863521;29;20040;-89
2022/04/29 04:24:32;;;;;;;10.10;3.40;;;;;;;10.73;84.45;101408.03;4864040;29;20037;-87
2022/04/29 04:26:58;;;;;;;8.68;3.80;;;;;;;10.61;85.00;101406.47;4879048;29;20143;-85
2022/04/29 04:29:24;;;;;;;10.38;3.80;;;;;;;10.62;85.28;101400.19;4882026;29;20059;-89
2022/04/29 04:31:51;;;;;;;8.02;4.13;;;;;;;10.51;86.36;101398.53;4856183;29;20522;-87
2022/04/29 04:37:05;;;;;;;14.15;3.88;;;;;;;10.51;86.54;101403.84;4863657;29;20370;-89
2022/04/29 04:39:31;;;;;;;11.70;4.30;;;;;;;10.31;87.72;101396.84;4846299;29;20041;-90
2022/04/29 04:42:06;;;;;;;9.77;4.18;;;;;;;10.23;89.21;101405.53;4845908;29;20029;-92
2022/04/29 04:44:42;;;;;;;6.40;3.80;;;;;;;10.47;87.58;101412.22;4861656;29;20046;-90
2022/04/29 04:47:08;;;;;;;5.20;3.50;;;;;;;10.63;87.45;101412.50;4846668;29;20045;-90
2022/04/29 04:50:09;;;;;;;10.00;4.13;;;;;;;10.69;87.48;101404.81;4862772;29;20049;-86
2022/04/29 04:52:34;;;;;;;9.00;4.18;;;;;;;10.80;86.73;101404.63;4862531;29;20078;-90
2022/04/29 04:55:10;;;;;;;20.60;5.32;;;;;;;10.76;86.36;101407.72;4847347;29;20045;-90
2022/04/29 04:57:40;;;;;;;17.95;5.18;;;;;;;10.55;86.56;101404.38;4847822;29;20481;-90
2022/04/29 05:00:06;;;;;;;12.68;4.68;;;;;;;10.39;87.02;101407.59;4870809;29;20093;-89
2022/04/29 05:03:08;;;;;;;13.38;4.57;;;;;;;10.40;88.38;101411.94;4844259;29;20054;-87
2022/04/29 05:05:59;;;;;;;6.28;3.95;;;;;;;10.39;85.76;101410.25;4862733;29;20045;-89
2022/04/29 05:08:25;;;;;;;7.45;4.25;;;;;;;10.38;86.38;101413.88;4861346;29;20508;-89
2022/04/29 05:10:51;;;;;;;7.95;4.22;;;;;;;10.41;85.96;101418.91;4865885;29;20128;-90
2022/04/29 05:13:17;;;;;;;8.48;3.92;;;;;;;10.47;86.10;101426.31;4862872;29;20133;-86
2022/04/29 05:15:48;;;;;;;5.55;3.83;;;;;;;10.59;85.64;101425.19;4864276;29;20092;-88
2022/04/29 05:18:23;;;;;;;9.60;3.90;;;;;;;10.82;83.80;101423.06;4864193;29;20037;-87
2022/04/29 05:21:00;;;;;;;11.00;3.83;;;;;;;11.09;82.21;101432.94;4866380;29;20049;-87
2022/04/29 05:23:26;;;;;;;14.45;4.63;;;;;;;11.22;82.40;101436.13;4872803;29;20093;-91
2022/04/29 05:26:12;;;;;;;8.48;4.00;;;;;;;11.45;79.98;101433.94;4861997;29;20056;-86
2022/04/29 05:28:52;;;;;;;13.88;3.92;;;;;;;11.70;78.13;101436.78;4872378;29;20056;-87
2022/04/29 05:31:50;;;;;;;11.13;4.07;;;;;;;11.71;77.36;101437.63;4865075;29;20049;-89
2022/04/29 05:34:34;;;;;;;6.70;3.65;;;;;;;11.86;76.82;101442.28;4890155;29;20190;-89
2022/04/29 05:37:29;;;;;;;15.05;3.63;;;;;;;12.33;75.46;101440.31;4888074;29;20068;-90
2022/04/29 05:42:53;;;;;;;15.23;8.15;;;;;;;14.05;65.97;101441.34;4893544;29;20080;-88
2022/04/29 05:45:19;;;;;;;16.25;8.65;;;;;;;15.46;62.03;101445.38;4892548;29;20040;-89
2022/04/29 05:47:51;;;;;;;20.30;9.57;;;;;;;15.37;58.81;101443.75;4861923;29;20056;-88
2022/04/29 05:50:17;;;;;;;14.77;7.07;;;;;;;16.06;57.10;101444.84;4886947;29;20033;-88
2022/04/29 05:52:42;;;;;;;12.65;5.75;;;;;;;15.81;56.88;101450.28;4870991;29;20084;-90
2022/04/29 05:55:08;;;;;;;7.15;4.60;;;;;;;16.08;56.25;101445.47;4870803;29;20055;-89
2022/04/29 05:57:36;;;;;;;6.32;4.22;;;;;;;16.10;55.89;101446.16;4885415;29;20044;-89
2022/04/29 06:00:03;;;;;;;11.27;3.65;;;;;;;16.70;53.53;101457.84;4886189;29;20493;-88
2022/04/29 06:02:42;;;;;;;10.85;3.03;;;;;;;16.18;55.97;101456.78;4888833;29;20037;-88
2022/04/29 06:05:14;;;;;;;3.47;2.78;;;;;;;16.86;53.40;101463.06;4886914;29;20044;-89
2022/04/29 06:07:43;;;;;;;9.70;3.40;;;;;;;16.35;53.76;101469.06;4886256;29;20041;-86
2022/04/29 06:10:12;;;;;;;5.28;3.25;;;;;;;17.37;52.50;101476.63;4870073;29;20061;-88
2022/04/29 06:12:41;;;;;;;6.97;3.50;;;;;;;16.63;52.94;101472.94;4902841;29;20053;-89
2022/04/29 06:15:16;;;;;;;9.50;3.65;;;;;;;17.78;50.14;101472.53;4904749;29;20025;-87
2022/04/29 06:18:04;;;;;;;8.05;3.00;;;;;;;18.70;46.82;101473.63;4905485;29;20067;-87
2022/04/29 06:20:48;;;;;;;11.40;3.42;;;;;;;17.69;50.23;101476.34;4905233;29;20060;-88
2022/04/29 06:23:34;;;;;;;6.43;2.60;;;;;;;18.70;47.45;101484.38;4885984;29;20136;-86
2022/04/29 06:26:01;;;;;;;9.23;2.92;;;;;;;19.37;45.85;101481.22;4894204;29;20052;-87
2022/04/29 06:28:32;;;;;;;5.22;3.50;;;;;;;19.30;45.49;101483.88;4894835;29;20036;-90
2022/04/29 06:30:59;;;;;;;6.78;3.28;;;;;;;19.33;45.64;101483.47;4872438;29;20140;-88
2022/04/29 06:33:43;;;;;;;10.90;4.22;;;;;;;19.26;47.40;101489.81;4889414;29;20043;-86
2022/04/29 06:36:12;;;;;;;30.60;5.35;;;;;;;17.84;51.32;101490.56;4872602;29;20127;-87
2022/04/29 06:38:41;;;;;;;11.52;5.38;;;;;;;17.79;53.58;101489.47;4871416;29;20053;-89
2022/04/29 06:41:06;;;;;;;12.60;4.63;;;;;;;17.33;55.68;101496.81;4872404;29;20029;-88
2022/04/29 06:43:46;;;;;;;12.98;4.80;;;;;;;17.99;53.03;101493.25;4870184;29;20037;-89
2022/04/29 06:46:38;;;;;;;17.87;5.77;;;;;;;18.83;50.23;101489.88;4868530;29;20044;-87
2022/04/29 06:49:03;;;;;;;12.57;4.32;;;;;;;18.17;52.25;101484.78;4887048;29;20041;-88
2022/04/29 06:52:04;;;;;;;11.35;4.88;;;;;;;19.33;49.45;101488.00;4862465;29;20529;-90
2022/04/29 06:54:40;;;;;;;13.65;4.82;;;;;;;19.55;49.11;101490.47;4862404;29;20057;-90
2022/04/29 06:57:10;;;;;;;10.05;4.80;;;;;;;20.22;46.64;101489.78;4883740;29;20064;-88
2022/04/29 06:59:36;;;;;;;11.73;5.53;;;;;;;19.98;44.86;101493.00;4865182;29;20505;-88
2022/04/29 07:02:02;;;;;;;19.17;5.80;;;;;;;19.60;46.12;101489.91;4880333;29;20536;-88
2022/04/29 07:04:29;;;;;;;8.60;6.15;;;;;;;20.61;42.92;101506.09;4881196;29;20035;-89
2022/04/29 07:06:56;;;;;;;9.63;5.63;;;;;;;21.20;41.65;101499.16;4866430;29;20037;-89
2022/04/29 07:09:24;;;;;;;9.15;5.93;;;;;;;20.42;43.17;101500.66;4884099;23;20112;-90
2022/04/29 07:12:11;;;;;;;14.02;6.32;;;;;;;20.51;43.61;101497.59;4872065;29;20041;-89
2022/04/29 07:14:55;;;;;;;13.73;6.22;;;;;;;20.71;42.25;101496.81;4888198;29;20037;-91
2022/04/29 07:17:22;;;;;;;12.48;5.80;;;;;;;22.31;39.12;101500.75;4884943;29;20084;-90
2022/04/29 07:19:53;;;;;;;9.13;5.63;;;;;;;23.04;37.08;101497.41;4886266;29;20048;-89
2022/04/29 07:22:23;;;;;;;11.40;6.10;;;;;;;22.79;38.11;101496.56;4887987;29;20037;-92
2022/04/29 07:24:51;;;;;;;9.63;5.05;;;;;;;23.77;35.38;101497.56;4872722;29;20033;-90
2022/04/29 07:27:17;;;;;;;12.02;5.60;;;;;;;23.26;35.70;101495.16;4885953;29;20021;-90
2022/04/29 07:29:43;;;;;;;10.20;4.15;;;;;;;24.51;32.95;101502.72;4885650;29;20033;-91
2022/04/29 07:32:13;;;;;;;8.80;4.65;;;;;;;21.83;37.71;101501.13;4886605;29;20081;-91
2022/04/29 07:43:39;;;;;;;9.05;5.03;;;;;;;21.73;35.72;101503.44;4880967;29;20395;-89
2022/04/29 07:46:05;;;;;;;8.25;4.50;;;;;;;21.28;36.33;101504.34;4880048;29;20037;-92
2022/04/29 07:48:49;;;;;;;6.50;4.47;;;;;;;21.38;37.72;101493.94;4889122;29;20056;-91
2022/04/29 07:51:15;;;;;;;8.32;4.63;;;;;;;21.77;36.02;101498.44;4870886;29;20405;-89
2022/04/29 07:53:41;;;;;;;7.95;5.15;;;;;;;21.79;35.89;101505.28;4881023;29;20136;-90
2022/04/29 07:56:07;;;;;;;10.55;4.95;;;;;;;21.87;36.42;101494.28;4880055;29;20111;-91
2022/04/29 07:58:35;;;;;;;7.82;4.97;;;;;;;23.20;34.13;101497.94;4879761;29;20121;-90
2022/04/29 08:01:03;;;;;;;8.45;4.40;;;;;;;23.58;34.04;101501.31;4864669;29;20192;-91
2022/04/29 08:03:29;;;;;;;6.10;4.45;;;;;;;22.23;36.22;101506.41;4879971;29;20075;-89
2022/04/29 08:06:00;;;;;;;6.43;4.55;;;;;;;23.44;34.09;101510.63;4863561;29;20032;-89
2022/04/29 08:08:25;;;;;;;12.25;5.57;;;;;;;23.57;34.38;101499.66;4863670;29;20037;-88
2022/04/29 08:10:51;;;;;;;10.95;4.95;;;;;;;23.78;34.40;101501.94;4863944;29;20056;-89
2022/04/29 08:13:17;;;;;;;9.10;5.07;;;;;;;24.61;33.34;101503.00;4880089;29;20041;-90
2022/04/29 08:16:01;;;;;;;9.77;5.30;;;;;;;24.21;33.49;101506.47;4881491;29;20036;-90
2022/04/29 08:18:43;;;;;;;8.82;5.45;;;;;;;23.68;34.63;101518.72;4880685;29;20400;-91
2022/04/29 08:21:09;;;;;;;11.25;5.03;;;;;;;23.96;34.34;101514.69;4879815;29;20264;-90
2022/04/29 08:23:35;;;;;;;7.97;5.22;;;;;;;23.42;35.92;101515.44;4865930;29;20147;-88
2022/04/29 08:26:01;;;;;;;7.88;4.80;;;;;;;22.81;34.76;101507.97;4883017;29;20036;-90
2022/04/29 08:28:28;;;;;;;14.82;5.20;;;;;;;22.68;35.37;101497.25;4881770;29;20495;-91
2022/04/29 08:30:53;;;;;;;9.88;4.65;;;;;;;22.88;36.06;101506.06;4879814;29;20033;-91
2022/04/29 08:33:25;;;;;;;15.65;5.45;;;;;;;23.20;34.52;101508.75;4880074;29;20048;-89
2022/04/29 08:35:52;;;;;;;13.65;5.32;;;;;;;23.12;35.41;101501.72;4866292;29;20104;-91
2022/04/29 08:38:19;;;;;;;12.85;5.60;;;;;;;22.76;35.45;101499.72;4879862;29;20396;-91
2022/04/29 08:40:51;;;;;;;18.67;5.78;;;;;;;22.08;36.99;101506.69;4880431;29;20045;-89
2022/04/29 08:43:24;;;;;;;16.37;5.27;;;;;;;22.34;35.96;101503.06;4880361;29;20033;-88
2022/04/29 08:45:55;;;;;;;14.70;5.10;;;;;;;22.45;34.75;101500.47;4882012;29;20597;-89
2022/04/29 08:48:41;;;;;;;11.45;4.85;;;;;;;22.41;34.46;101487.63;4882286;29;20056;-89
2022/04/29 08:51:07;;;;;;;12.88;5.20;;;;;;;22.53;34.51;101492.13;4880979;29;20037;-91
2022/04/29 08:53:34;;;;;;;15.07;6.00;;;;;;;22.04;36.18;101491.97;4883086;29;20466;-90
2022/04/29 08:58:53;;;;;;;9.30;4.93;;;;;;;22.40;34.54;101491.38;4887508;29;20049;-89
2022/04/29 09:01:20;;;;;;;11.43;4.60;;;;;;;22.62;32.42;101484.59;4890388;29;20036;-90
2022/04/29 09:03:47;;;;;;;12.20;5.45;;;;;;;22.20;33.30;101487.94;4874549;29;20481;-89
2022/04/29 09:06:17;;;;;;;8.73;5.63;;;;;;;22.33;33.89;101485.19;4887518;29;20029;-91
2022/04/29 09:08:45;;;;;;;7.35;4.75;;;;;;;23.53;32.02;101476.84;4903180;29;20052;-90
2022/04/29 09:11:27;;;;;;;10.70;5.10;;;;;;;23.41;30.68;101473.19;4903096;29;20089;-91
2022/04/29 09:13:53;;;;;;;9.68;4.97;;;;;;;24.17;29.42;101479.84;4891085;29;20045;-90
2022/04/29 09:16:24;;;;;;;7.40;5.00;;;;;;;23.86;30.17;101474.59;4883758;29;20382;-90
2022/04/29 09:18:53;;;;;;;9.32;5.18;;;;;;;23.74;31.25;101470.97;4884630;29;20072;-92
2022/04/29 09:21:24;;;;;;;9.18;5.15;;;;;;;23.94;30.46;101468.84;4878865;29;20033;-89
2022/04/29 09:23:55;;;;;;;7.95;5.00;;;;;;;23.62;30.86;101468.19;4885916;29;20507;-88
2022/04/29 09:26:35;;;;;;;8.80;5.78;;;;;;;23.51;31.81;101458.09;4882464;29;20033;-90
2022/04/29 09:29:20;;;;;;;8.13;4.80;;;;;;;24.25;30.95;101458.91;4883019;29;20474;-90
2022/04/29 09:32:11;;;;;;;7.07;3.67;;;;;;;23.98;28.28;101459.22;4873052;29;20504;-90
2022/04/29 09:34:58;;;;;;;6.63;3.58;;;;;;;23.45;28.35;101463.59;4886959;29;20060;-91
2022/04/29 09:37:28;;;;;;;7.38;3.65;;;;;;;23.31;28.14;101445.78;4895730;23;20065;-81
2022/04/29 09:40:04;;;;;;;14.60;4.20;;;;;;;23.22;29.19;101456.06;4880679;29;20084;-81
2022/04/29 09:42:40;;;;;;;7.20;4.05;;;;;;;23.00;30.31;101442.09;4880512;29;20111;-80
2022/04/29 09:45:24;;;;;;;6.97;4.43;;;;;;;23.98;28.94;101442.97;4879096;29;20041;-86
2022/04/29 09:47:55;;;;;;;13.20;4.07;;;;;;;24.12;27.77;101457.22;4879149;29;20040;-77
2022/04/29 09:50:21;;;;;;;7.38;2.95;;;;;;;23.71;27.20;101430.81;4879901;29;20060;-81
2022/04/29 09:52:49;;;;;;;6.53;3.42;;;;;;;23.86;27.33;101428.56;4885680;29;20098;-86
2022/04/29 09:55:20;;;;;;;7.43;3.40;;;;;;;23.87;27.15;101430.19;4867456;29;20044;-89
2022/04/29 09:57:56;;;;;;;8.07;3.57;;;;;;;23.99;27.94;101422.97;4883362;29;20078;-84
2022/04/29 10:00:23;;;;;;;8.23;4.00;;;;;;;24.01;29.20;101425.44;4851254;29;20061;-84
2022/04/29 10:02:49;;;;;;;8.30;3.83;;;;;;;24.31;28.19;101420.06;4865928;29;20030;-88
2022/04/29 10:05:16;;;;;;;6.15;2.90;;;;;;;24.03;26.62;101424.16;4880684;29;20042;-86
2022/04/29 10:07:44;;;;;;;6.82;2.92;;;;;;;23.27;28.21;101407.53;4865760;29;20042;-81
2022/04/29 10:10:11;;;;;;;6.30;4.00;;;;;;;22.60;28.77;101422.63;4896201;29;20041;-85
2022/04/29 10:12:37;;;;;;;6.72;3.40;;;;;;;22.96;29.14;101400.38;4885523;29;20029;-81
2022/04/29 10:15:23;;;;;;;8.77;3.40;;;;;;;23.57;28.52;101386.00;4888643;29;20043;-83
2022/04/29 10:21:16;;;;;;;12.60;3.60;;;;;;;23.48;29.45;101398.19;4886648;29;20076;-82
2022/04/29 10:23:48;;;;;;;5.38;3.63;;;;;;;23.69;28.44;101395.03;4885580;29;20048;-84
2022/04/29 10:26:22;;;;;;;10.27;3.92;;;;;;;23.28;27.57;101398.38;4887699;29;20029;-81
2022/04/29 10:28:52;;;;;;;10.77;4.25;;;;;;;22.98;28.56;101390.16;4889255;29;20048;-84
2022/04/29 10:31:20;;;;;;;6.90;3.58;;;;;;;22.94;29.04;101386.22;4886722;29;20557;-86
2022/04/29 10:33:52;;;;;;;10.15;3.60;;;;;;;23.05;29.35;101376.56;4886230;29;20052;-86
2022/04/29 10:36:24;;;;;;;8.35;3.25;;;;;;;23.21;28.30;101375.97;4898993;29;20055;-84
2022/04/29 10:39:00;;;;;;;6.15;3.10;;;;;;;23.82;28.24;101366.97;4884214;29;20037;-82
2022/04/29 10:41:26;;;;;;;9.65;3.72;;;;;;;24.19;26.30;101368.56;4898202;29;20393;-81
2022/04/29 10:43:51;;;;;;;7.88;5.68;;;;;;;23.90;26.43;101361.22;4884399;29;20058;-82
2022/04/29 10:46:20;;;;;;;8.55;3.63;;;;;;;23.62;27.03;101359.09;4882480;29;20049;-81
2022/04/29 10:49:29;;;;;;;5.35;3.25;;;;;;;24.01;26.92;101369.41;4885091;29;20457;-83
2022/04/29 10:52:24;;;;;;;7.18;3.67;;;;;;;24.17;26.90;101360.66;4901431;29;20040;-83
2022/04/29 10:54:59;;;;;;;5.18;3.38;;;;;;;24.07;26.00;101354.94;4903391;29;20116;-83
2022/04/29 10:57:47;;;;;;;5.82;3.40;;;;;;;23.77;26.07;101359.50;4904537;29;20041;-83
2022/04/29 11:00:27;;;;;;;3.95;3.42;;;;;;;23.16;26.15;101363.16;4919640;29;20043;-83
2022/04/29 11:03:34;;;;;;;7.20;3.28;;;;;;;23.55;26.90;101356.47;4901667;29;20032;-85
2022/04/29 11:06:07;;;;;;;4.40;2.88;;;;;;;23.47;26.16;101337.00;4866806;29;20112;-80
2022/04/29 11:08:33;;;;;;;;;;;;;;;23.13;26.68;101336.50;4877709;29;20481;-83
2022/04/29 11:11:00;;;;;;;7.40;3.10;;;;;;;22.94;26.66;101342.97;4884439;29;20368;-79
2022/04/29 11:13:42;;;;;;;5.50;3.78;;;;;;;22.52;27.09;101331.06;4870419;29;20053;-82
2022/04/29 11:16:48;;;;;;;7.30;3.03;;;;;;;23.48;26.33;101335.94;4888032;29;20060;-83
2022/04/29 11:19:40;;;;;;;6.05;3.25;;;;;;;23.65;25.95;101318.03;4903366;29;20576;-89
2022/04/29 11:24:54;;;;;;;7.45;3.60;;;;;;;24.29;25.52;101330.06;4915909;29;20454;-80
2022/04/29 11:27:38;;;;;;;6.25;4.05;;;;;;;23.25;26.68;101335.78;4900122;29;20496;-81
2022/04/29 11:30:11;;;;;;;10.10;6.10;;;;;;;23.39;26.90;101313.78;4915250;29;20048;-82
2022/04/29 11:32:52;;;;;;;14.40;5.53;;;;;;;23.47;27.12;101308.06;4901782;29;20115;-83
2022/04/29 11:35:22;;;;;;;7.25;3.97;;;;;;;23.97;26.82;101307.78;4901452;29;20068;-81
2022/04/29 11:37:48;;;;;;;7.82;4.53;;;;;;;23.67;27.12;101315.91;4895689;29;20037;-81
2022/04/29 11:40:17;;;;;;;8.45;4.35;;;;;;;22.81;28.17;101307.13;4882596;29;20482;-84
2022/04/29 11:42:50;;;;;;;10.30;4.53;;;;;;;21.81;29.49;101314.28;4894821;29;20065;-81
2022/04/29 11:45:20;;;;;;;8.65;4.40;;;;;;;21.27;30.45;101300.44;4894732;29;20133;-79
2022/04/29 11:47:49;;;;;;;10.93;4.78;;;;;;;21.00;31.04;101313.97;4885164;29;20045;-79
2022/04/29 11:50:15;;;;;;;9.25;5.60;;;;;;;20.98;31.25;101297.16;4883642;29;20178;-83
2022/04/29 11:52:43;;;;;;;6.85;5.07;;;;;;;20.98;31.23;101291.78;4886102;29;20044;-83
2022/04/29 11:55:14;;;;;;;6.85;4.63;;;;;;;20.90;31.89;101305.50;4899315;29;20041;-81
2022/04/29 11:57:49;;;;;;;11.40;4.53;;;;;;;20.82;30.41;101292.22;4884765;29;20116;-81
2022/04/29 12:00:22;;;;;;;7.72;3.53;;;;;;;20.72;31.25;101291.00;4881797;29;20045;-81
2022/04/29 12:02:50;;;;;;;7.80;4.22;;;;;;;20.79;31.22;101276.50;4884080;29;20105;-81
2022/04/29 12:05:17;;;;;;;14.52;4.22;;;;;;;21.00;31.01;101270.84;4880793;29;20045;-83
2022/04/29 12:07:46;;;;;;;5.63;4.22;;;;;;;20.76;31.52;101287.69;4885882;29;20418;-80
2022/04/29 12:10:19;;;;;;;6.85;4.80;;;;;;;20.56;31.57;101270.72;4915404;29;20041;-79
2022/04/29 12:12:49;;;;;;;8.75;4.68;;;;;;;20.43;31.84;101268.06;4901107;29;20044;-84